sensor_id;sensor_type;location;lat;lon;timestamp;pressure;altitude;pressure_sealevel;temperature;humidity
20105;BME280;10212;42.714;23.310;2023-03-21T00:04:12;95020.75;;;9.97;63.63
20105;BME280;10212;42.714;23.310;2023-03-21T00:14:12;95030.38;;;9.83;64.27
20105;BME280;10212;42.714;23.310;2023-03-21T00:24:13;95019.53;;;9.73;64.88
20105;BME280;10212;42.714;23.310;2023-03-21T00:34:13;95028.91;;;9.47;66.12
20105;BME280;10212;42.714;23.310;2023-03-21T00:44:14;95024.28;;;9.35;66.66
20105;BME280;10212;42.714;23.310;2023-03-21T00:54:14;95020.81;;;9.14;67.57
20105;BME280;10212;42.714;23.310;2023-03-21T01:04:15;95009.09;;;8.90;68.09
20105;BME280;10212;42.714;23.310;2023-03-21T01:14:16;95004.44;;;8.72;69.05
20105;BME280;10212;42.714;23.310;2023-03-21T01:24:16;95011.03;;;8.67;69.32
20105;BME280;10212;42.714;23.310;2023-03-21T01:34:17;95007.28;;;8.77;68.65
20105;BME280;10212;42.714;23.310;2023-03-21T01:44:17;94998.50;;;8.85;69.00
20105;BME280;10212;42.714;23.310;2023-03-21T01:54:20;95003.28;;;8.81;69.14
20105;BME280;10212;42.714;23.310;2023-03-21T02:04:23;94997.81;;;8.62;69.30
20105;BME280;10212;42.714;23.310;2023-03-21T02:14:29;94993.66;;;8.39;69.79
20105;BME280;10212;42.714;23.310;2023-03-21T02:44:57;94998.69;;;7.83;73.08
20105;BME280;10212;42.714;23.310;2023-03-21T02:55:00;94978.56;;;7.64;74.47
20105;BME280;10212;42.714;23.310;2023-03-21T03:05:12;94978.25;;;7.52;74.04
20105;BME280;10212;42.714;23.310;2023-03-21T03:25:30;95000.25;;;7.34;75.02
20105;BME280;10212;42.714;23.310;2023-03-21T03:35:32;94991.47;;;7.35;74.48
20105;BME280;10212;42.714;23.310;2023-03-21T03:45:33;94996.38;;;7.08;76.10
20105;BME280;10212;42.714;23.310;2023-03-21T03:55:34;94992.63;;;6.95;77.07
20105;BME280;10212;42.714;23.310;2023-03-21T04:05:35;95003.66;;;6.82;77.28
20105;BME280;10212;42.714;23.310;2023-03-21T04:15:36;95002.09;;;6.66;78.58
20105;BME280;10212;42.714;23.310;2023-03-21T04:25:36;94990.63;;;6.60;78.02
20105;BME280;10212;42.714;23.310;2023-03-21T04:35:36;94981.78;;;6.55;78.59
20105;BME280;10212;42.714;23.310;2023-03-21T04:45:37;94998.78;;;6.57;78.83
20105;BME280;10212;42.714;23.310;2023-03-21T04:55:38;95001.59;;;6.78;79.11
20105;BME280;10212;42.714;23.310;2023-03-21T05:05:38;94996.84;;;6.96;78.25
20105;BME280;10212;42.714;23.310;2023-03-21T05:15:38;95006.41;;;7.11;77.72
20105;BME280;10212;42.714;23.310;2023-03-21T05:25:39;95005.44;;;7.34;77.09
20105;BME280;10212;42.714;23.310;2023-03-21T05:35:39;95002.53;;;7.66;76.49
20105;BME280;10212;42.714;23.310;2023-03-21T05:45:40;95010.50;;;8.15;74.55
20105;BME280;10212;42.714;23.310;2023-03-21T05:55:40;94988.81;;;8.65;71.44
20105;BME280;10212;42.714;23.310;2023-03-21T06:05:40;94978.63;;;9.26;68.73
20105;BME280;10212;42.714;23.310;2023-03-21T06:15:40;94973.47;;;9.80;65.56
20105;BME280;10212;42.714;23.310;2023-03-21T06:25:41;94965.75;;;10.46;63.10
20105;BME280;10212;42.714;23.310;2023-03-21T06:35:41;94974.34;;;10.67;60.40
20105;BME280;10212;42.714;23.310;2023-03-21T06:45:42;94979.69;;;10.93;59.88
20105;BME280;10212;42.714;23.310;2023-03-21T06:55:42;94977.41;;;11.42;58.39
20105;BME280;10212;42.714;23.310;2023-03-21T07:05:47;94989.81;;;11.47;57.13
20105;BME280;10212;42.714;23.310;2023-03-21T07:15:48;94994.72;;;11.37;57.09
20105;BME280;10212;42.714;23.310;2023-03-21T07:25:48;94992.31;;;11.93;55.68
20105;BME280;10212;42.714;23.310;2023-03-21T07:35:49;94982.25;;;12.41;53.65
20105;BME280;10212;42.714;23.310;2023-03-21T07:45:50;94988.94;;;12.74;53.73
20105;BME280;10212;42.714;23.310;2023-03-21T07:55:51;94992.72;;;12.97;52.48
20105;BME280;10212;42.714;23.310;2023-03-21T08:05:51;94989.31;;;13.27;52.39
20105;BME280;10212;42.714;23.310;2023-03-21T08:15:52;94989.94;;;13.96;50.01
20105;BME280;10212;42.714;23.310;2023-03-21T08:25:52;94979.47;;;14.20;48.19
20105;BME280;10212;42.714;23.310;2023-03-21T08:35:53;94972.75;;;14.01;49.05
20105;BME280;10212;42.714;23.310;2023-03-21T08:45:54;94965.22;;;14.04;49.48
20105;BME280;10212;42.714;23.310;2023-03-21T08:55:54;94973.75;;;13.99;49.40
20105;BME280;10212;42.714;23.310;2023-03-21T09:05:55;94956.88;;;14.43;47.96
20105;BME280;10212;42.714;23.310;2023-03-21T09:15:55;94949.63;;;14.09;49.43
20105;BME280;10212;42.714;23.310;2023-03-21T09:26:00;94940.59;;;14.82;48.13
20105;BME280;10212;42.714;23.310;2023-03-21T09:36:00;94922.00;;;15.13;47.09
20105;BME280;10212;42.714;23.310;2023-03-21T09:46:03;94921.53;;;15.16;47.88
20105;BME280;10212;42.714;23.310;2023-03-21T09:56:10;94897.84;;;15.63;46.47
20105;BME280;10212;42.714;23.310;2023-03-21T10:06:13;94895.69;;;15.77;46.04
20105;BME280;10212;42.714;23.310;2023-03-21T10:16:16;94882.03;;;16.14;46.12
20105;BME280;10212;42.714;23.310;2023-03-21T10:26:19;94863.56;;;17.37;40.64
20105;BME280;10212;42.714;23.310;2023-03-21T10:36:21;94875.88;;;17.59;40.60
20105;BME280;10212;42.714;23.310;2023-03-21T10:46:24;94878.81;;;17.30;39.63
20105;BME280;10212;42.714;23.310;2023-03-21T10:56:26;94880.56;;;16.24;40.08
20105;BME280;10212;42.714;23.310;2023-03-21T11:06:28;94861.25;;;17.79;37.47
20105;BME280;10212;42.714;23.310;2023-03-21T11:16:30;94843.59;;;17.79;37.27
20105;BME280;10212;42.714;23.310;2023-03-21T11:26:35;94834.47;;;18.08;36.29
20105;BME280;10212;42.714;23.310;2023-03-21T11:36:36;94816.78;;;18.03;37.18
20105;BME280;10212;42.714;23.310;2023-03-21T11:46:39;94810.56;;;18.20;36.92
20105;BME280;10212;42.714;23.310;2023-03-21T11:56:44;94786.88;;;18.41;36.36
20105;BME280;10212;42.714;23.310;2023-03-21T12:06:57;94790.25;;;17.67;36.95
20105;BME280;10212;42.714;23.310;2023-03-21T12:27:10;94772.03;;;18.19;35.62
20105;BME280;10212;42.714;23.310;2023-03-21T12:47:15;94752.59;;;18.88;32.87
20105;BME280;10212;42.714;23.310;2023-03-21T12:57:20;94731.19;;;19.00;33.94
20105;BME280;10212;42.714;23.310;2023-03-21T13:07:22;94718.53;;;18.65;34.20
20105;BME280;10212;42.714;23.310;2023-03-21T13:17:29;94715.63;;;18.93;34.07
20105;BME280;10212;42.714;23.310;2023-03-21T13:37:32;94703.44;;;18.29;35.80
20105;BME280;10212;42.714;23.310;2023-03-21T13:47:41;94688.69;;;18.34;36.37
20105;BME280;10212;42.714;23.310;2023-03-21T13:57:49;94684.19;;;18.29;36.59
20105;BME280;10212;42.714;23.310;2023-03-21T14:07:52;94681.97;;;18.00;38.24
20105;BME280;10212;42.714;23.310;2023-03-21T14:17:55;94676.31;;;17.54;38.09
20105;BME280;10212;42.714;23.310;2023-03-21T14:27:56;94676.88;;;17.13;39.79
20105;BME280;10212;42.714;23.310;2023-03-21T14:38:05;94676.44;;;16.56;40.06
20105;BME280;10212;42.714;23.310;2023-03-21T14:48:11;94676.78;;;16.32;41.97
20105;BME280;10212;42.714;23.310;2023-03-21T14:58:12;94684.69;;;15.59;48.66
20105;BME280;10212;42.714;23.310;2023-03-21T15:08:18;94692.28;;;14.99;51.33
20105;BME280;10212;42.714;23.310;2023-03-21T15:18:23;94695.75;;;14.82;52.02
20105;BME280;10212;42.714;23.310;2023-03-21T15:28:24;94710.28;;;13.32;59.40
20105;BME280;10212;42.714;23.310;2023-03-21T15:38:29;94706.94;;;11.91;69.96
20105;BME280;10212;42.714;23.310;2023-03-21T15:48:32;94721.81;;;11.15;76.54
20105;BME280;10212;42.714;23.310;2023-03-21T15:58:36;94726.75;;;10.47;84.21
20105;BME280;10212;42.714;23.310;2023-03-21T16:08:47;94722.97;;;10.04;86.29
20105;BME280;10212;42.714;23.310;2023-03-21T16:18:48;94750.44;;;10.38;87.45
20105;BME280;10212;42.714;23.310;2023-03-21T16:28:48;94762.00;;;10.10;97.42
20105;BME280;10212;42.714;23.310;2023-03-21T16:38:49;94770.81;;;9.63;100.00
20105;BME280;10212;42.714;23.310;2023-03-21T16:48:52;94758.63;;;9.50;100.00
20105;BME280;10212;42.714;23.310;2023-03-21T16:58:53;94740.25;;;9.18;100.00
20105;BME280;10212;42.714;23.310;2023-03-21T17:08:55;94735.84;;;9.19;100.00
20105;BME280;10212;42.714;23.310;2023-03-21T17:18:56;94747.59;;;9.55;100.00
20105;BME280;10212;42.714;23.310;2023-03-21T17:28:56;94761.34;;;9.76;100.00
20105;BME280;10212;42.714;23.310;2023-03-21T17:38:57;94775.16;;;9.83;100.00
20105;BME280;10212;42.714;23.310;2023-03-21T17:48:57;94782.19;;;9.76;100.00
20105;BME280;10212;42.714;23.310;2023-03-21T17:58:58;94783.63;;;9.58;100.00
20105;BME280;10212;42.714;23.310;2023-03-21T18:08:59;94802.06;;;9.50;100.00
20105;BME280;10212;42.714;23.310;2023-03-21T18:19:02;94814.31;;;9.43;100.00
20105;BME280;10212;42.714;23.310;2023-03-21T18:29:03;94808.47;;;9.47;100.00
20105;BME280;10212;42.714;23.310;2023-03-21T18:39:03;94809.09;;;9.43;100.00
20105;BME280;10212;42.714;23.310;2023-03-21T18:49:04;94802.50;;;9.06;100.00
20105;BME280;10212;42.714;23.310;2023-03-21T18:59:04;94794.28;;;8.96;100.00
20105;BME280;10212;42.714;23.310;2023-03-21T19:09:05;94819.72;;;9.07;100.00
20105;BME280;10212;42.714;23.310;2023-03-21T19:19:06;94835.28;;;8.93;100.00
20105;BME280;10212;42.714;23.310;2023-03-21T19:29:07;94827.47;;;8.73;100.00
20105;BME280;10212;42.714;23.310;2023-03-21T19:39:08;94830.00;;;8.53;100.00
20105;BME280;10212;42.714;23.310;2023-03-21T19:49:09;94827.16;;;8.41;100.00
20105;BME280;10212;42.714;23.310;2023-03-21T19:59:10;94828.72;;;8.28;100.00
20105;BME280;10212;42.714;23.310;2023-03-21T20:09:10;94832.53;;;8.26;100.00
20105;BME280;10212;42.714;23.310;2023-03-21T20:19:11;94831.13;;;8.30;100.00
20105;BME280;10212;42.714;23.310;2023-03-21T20:29:13;94830.34;;;8.29;100.00
20105;BME280;10212;42.714;23.310;2023-03-21T20:39:14;94827.16;;;8.34;100.00
20105;BME280;10212;42.714;23.310;2023-03-21T20:49:14;94821.97;;;8.34;100.00
20105;BME280;10212;42.714;23.310;2023-03-21T20:59:14;94827.53;;;8.31;100.00
20105;BME280;10212;42.714;23.310;2023-03-21T21:09:15;94845.97;;;8.43;100.00
20105;BME280;10212;42.714;23.310;2023-03-21T21:19:16;94849.59;;;8.49;100.00
20105;BME280;10212;42.714;23.310;2023-03-21T21:29:17;94844.59;;;8.05;100.00
20105;BME280;10212;42.714;23.310;2023-03-21T21:39:18;94849.81;;;8.05;100.00
20105;BME280;10212;42.714;23.310;2023-03-21T21:49:20;94853.88;;;8.21;100.00
20105;BME280;10212;42.714;23.310;2023-03-21T21:59:21;94854.63;;;8.08;100.00
20105;BME280;10212;42.714;23.310;2023-03-21T22:09:23;94853.13;;;7.85;100.00
20105;BME280;10212;42.714;23.310;2023-03-21T22:19:23;94859.13;;;7.57;100.00
20105;BME280;10212;42.714;23.310;2023-03-21T22:29:24;94859.66;;;7.45;100.00
20105;BME280;10212;42.714;23.310;2023-03-21T22:39:25;94856.25;;;7.16;100.00
20105;BME280;10212;42.714;23.310;2023-03-21T22:49:27;94861.88;;;6.98;100.00
20105;BME280;10212;42.714;23.310;2023-03-21T22:59:27;94869.88;;;7.03;100.00
20105;BME280;10212;42.714;23.310;2023-03-21T23:09:28;94877.09;;;7.08;100.00
20105;BME280;10212;42.714;23.310;2023-03-21T23:19:28;94868.69;;;7.06;100.00
20105;BME280;10212;42.714;23.310;2023-03-21T23:29:29;94866.44;;;7.18;100.00
20105;BME280;10212;42.714;23.310;2023-03-21T23:39:29;94871.41;;;6.97;100.00
20105;BME280;10212;42.714;23.310;2023-03-21T23:49:32;94862.97;;;6.88;100.00
20105;BME280;10212;42.714;23.310;2023-03-21T23:59:36;94867.63;;;6.93;100.00
